sensor_id;sensor_type;location;lat;lon;timestamp;P1;durP1;ratioP1;P2;durP2;ratioP2
13807;SDS011;40769;51.512;5.494;2023-05-10T00:02:06;12.07;;;10.88;;
13807;SDS011;40769;51.512;5.494;2023-05-10T00:04:31;9.18;;;8.27;;
13807;SDS011;40769;51.512;5.494;2023-05-10T00:06:57;10.25;;;9.20;;
13807;SDS011;40769;51.512;5.494;2023-05-10T00:09:23;15.77;;;12.15;;
13807;SDS011;40769;51.512;5.494;2023-05-10T00:11:49;15.82;;;14.15;;
13807;SDS011;40769;51.512;5.494;2023-05-10T00:14:14;17.63;;;15.73;;
13807;SDS011;40769;51.512;5.494;2023-05-10T00:16:40;14.45;;;12.57;;
13807;SDS011;40769;51.512;5.494;2023-05-10T00:19:05;12.20;;;10.82;;
13807;SDS011;40769;51.512;5.494;2023-05-10T00:21:31;15.73;;;14.10;;
13807;SDS011;40769;51.512;5.494;2023-05-10T00:23:58;15.38;;;13.77;;
13807;SDS011;40769;51.512;5.494;2023-05-10T00:26:24;13.77;;;12.40;;
13807;SDS011;40769;51.512;5.494;2023-05-10T00:28:50;20.25;;;17.98;;
13807;SDS011;40769;51.512;5.494;2023-05-10T00:31:15;17.08;;;15.30;;
13807;SDS011;40769;51.512;5.494;2023-05-10T00:33:41;13.48;;;12.18;;
13807;SDS011;40769;51.512;5.494;2023-05-10T00:36:07;14.57;;;12.60;;
13807;SDS011;40769;51.512;5.494;2023-05-10T00:38:33;15.13;;;13.45;;
13807;SDS011;40769;51.512;5.494;2023-05-10T00:40:58;14.45;;;12.95;;
13807;SDS011;40769;51.512;5.494;2023-05-10T00:43:24;18.65;;;14.98;;
13807;SDS011;40769;51.512;5.494;2023-05-10T00:45:50;11.45;;;10.38;;
13807;SDS011;40769;51.512;5.494;2023-05-10T00:48:15;18.23;;;15.35;;
13807;SDS011;40769;51.512;5.494;2023-05-10T00:50:41;14.95;;;13.38;;
13807;SDS011;40769;51.512;5.494;2023-05-10T00:53:07;14.27;;;12.82;;
13807;SDS011;40769;51.512;5.494;2023-05-10T00:55:34;21.60;;;17.70;;
13807;SDS011;40769;51.512;5.494;2023-05-10T00:57:59;14.90;;;13.32;;
13807;SDS011;40769;51.512;5.494;2023-05-10T01:00:26;18.13;;;15.73;;
13807;SDS011;40769;51.512;5.494;2023-05-10T01:02:53;16.10;;;14.40;;
13807;SDS011;40769;51.512;5.494;2023-05-10T01:05:18;18.40;;;15.25;;
13807;SDS011;40769;51.512;5.494;2023-05-10T01:07:44;19.60;;;17.52;;
13807;SDS011;40769;51.512;5.494;2023-05-10T01:10:10;22.52;;;19.77;;
13807;SDS011;40769;51.512;5.494;2023-05-10T01:12:37;22.70;;;19.55;;
13807;SDS011;40769;51.512;5.494;2023-05-10T01:15:06;20.85;;;18.23;;
13807;SDS011;40769;51.512;5.494;2023-05-10T01:17:34;24.10;;;19.15;;
13807;SDS011;40769;51.512;5.494;2023-05-10T01:20:02;25.25;;;19.95;;
13807;SDS011;40769;51.512;5.494;2023-05-10T01:25:58;25.98;;;22.55;;
13807;SDS011;40769;51.512;5.494;2023-05-10T01:31:14;11.95;;;10.30;;
13807;SDS011;40769;51.512;5.494;2023-05-10T01:34:04;27.77;;;20.95;;
13807;SDS011;40769;51.512;5.494;2023-05-10T01:37:29;26.38;;;21.98;;
13807;SDS011;40769;51.512;5.494;2023-05-10T01:39:55;36.53;;;27.05;;
13807;SDS011;40769;51.512;5.494;2023-05-10T01:42:35;43.72;;;31.48;;
13807;SDS011;40769;51.512;5.494;2023-05-10T01:45:14;44.90;;;33.67;;
13807;SDS011;40769;51.512;5.494;2023-05-10T01:50:37;44.28;;;33.13;;
13807;SDS011;40769;51.512;5.494;2023-05-10T01:53:06;48.33;;;35.22;;
13807;SDS011;40769;51.512;5.494;2023-05-10T01:55:35;46.30;;;35.20;;
13807;SDS011;40769;51.512;5.494;2023-05-10T01:58:25;46.67;;;34.03;;
13807;SDS011;40769;51.512;5.494;2023-05-10T02:00:54;41.95;;;32.25;;
13807;SDS011;40769;51.512;5.494;2023-05-10T02:03:21;32.35;;;24.77;;
13807;SDS011;40769;51.512;5.494;2023-05-10T02:05:50;40.65;;;30.05;;
13807;SDS011;40769;51.512;5.494;2023-05-10T02:08:18;43.50;;;33.65;;
13807;SDS011;40769;51.512;5.494;2023-05-10T02:10:45;42.38;;;33.22;;
13807;SDS011;40769;51.512;5.494;2023-05-10T02:13:12;46.05;;;36.22;;
13807;SDS011;40769;51.512;5.494;2023-05-10T02:15:40;44.28;;;35.40;;
13807;SDS011;40769;51.512;5.494;2023-05-10T02:18:07;44.47;;;36.50;;
13807;SDS011;40769;51.512;5.494;2023-05-10T02:20:35;38.50;;;30.58;;
13807;SDS011;40769;51.512;5.494;2023-05-10T02:23:02;30.00;;;24.45;;
13807;SDS011;40769;51.512;5.494;2023-05-10T02:25:29;40.28;;;31.17;;
13807;SDS011;40769;51.512;5.494;2023-05-10T02:27:57;40.42;;;33.10;;
13807;SDS011;40769;51.512;5.494;2023-05-10T02:30:25;44.97;;;34.92;;
13807;SDS011;40769;51.512;5.494;2023-05-10T02:32:51;45.72;;;35.67;;
13807;SDS011;40769;51.512;5.494;2023-05-10T02:35:17;41.17;;;33.03;;
13807;SDS011;40769;51.512;5.494;2023-05-10T02:37:44;39.67;;;31.35;;
13807;SDS011;40769;51.512;5.494;2023-05-10T02:40:11;46.60;;;37.83;;
13807;SDS011;40769;51.512;5.494;2023-05-10T02:42:40;51.00;;;39.22;;
13807;SDS011;40769;51.512;5.494;2023-05-10T02:45:08;53.47;;;40.50;;
13807;SDS011;40769;51.512;5.494;2023-05-10T02:47:40;34.50;;;29.23;;
13807;SDS011;40769;51.512;5.494;2023-05-10T02:50:06;45.47;;;34.33;;
13807;SDS011;40769;51.512;5.494;2023-05-10T02:53:06;52.42;;;40.30;;
13807;SDS011;40769;51.512;5.494;2023-05-10T02:55:29;47.97;;;38.38;;
13807;SDS011;40769;51.512;5.494;2023-05-10T02:58:01;48.80;;;39.10;;
13807;SDS011;40769;51.512;5.494;2023-05-10T03:00:28;50.70;;;41.03;;
13807;SDS011;40769;51.512;5.494;2023-05-10T03:02:54;49.80;;;40.33;;
13807;SDS011;40769;51.512;5.494;2023-05-10T03:05:20;43.60;;;37.53;;
13807;SDS011;40769;51.512;5.494;2023-05-10T03:07:45;48.72;;;39.15;;
13807;SDS011;40769;51.512;5.494;2023-05-10T03:10:12;47.88;;;38.38;;
13807;SDS011;40769;51.512;5.494;2023-05-10T03:15:37;30.45;;;26.40;;
13807;SDS011;40769;51.512;5.494;2023-05-10T03:18:13;44.90;;;36.88;;
13807;SDS011;40769;51.512;5.494;2023-05-10T03:20:49;41.63;;;35.88;;
13807;SDS011;40769;51.512;5.494;2023-05-10T03:25:52;45.58;;;37.38;;
13807;SDS011;40769;51.512;5.494;2023-05-10T03:28:18;46.60;;;38.00;;
13807;SDS011;40769;51.512;5.494;2023-05-10T03:30:46;43.95;;;35.22;;
13807;SDS011;40769;51.512;5.494;2023-05-10T03:33:14;32.92;;;28.38;;
13807;SDS011;40769;51.512;5.494;2023-05-10T03:35:40;38.78;;;32.47;;
13807;SDS011;40769;51.512;5.494;2023-05-10T03:38:06;40.78;;;34.42;;
13807;SDS011;40769;51.512;5.494;2023-05-10T03:40:32;40.33;;;33.70;;
13807;SDS011;40769;51.512;5.494;2023-05-10T03:43:00;37.40;;;32.88;;
13807;SDS011;40769;51.512;5.494;2023-05-10T03:45:26;41.08;;;33.75;;
13807;SDS011;40769;51.512;5.494;2023-05-10T03:47:52;37.08;;;32.45;;
13807;SDS011;40769;51.512;5.494;2023-05-10T03:50:18;38.95;;;32.13;;
13807;SDS011;40769;51.512;5.494;2023-05-10T03:52:44;38.47;;;32.35;;
13807;SDS011;40769;51.512;5.494;2023-05-10T03:55:10;34.05;;;29.70;;
13807;SDS011;40769;51.512;5.494;2023-05-10T03:57:36;37.60;;;31.20;;
13807;SDS011;40769;51.512;5.494;2023-05-10T04:00:02;37.90;;;30.55;;
13807;SDS011;40769;51.512;5.494;2023-05-10T04:02:28;39.78;;;31.20;;
13807;SDS011;40769;51.512;5.494;2023-05-10T04:04:55;35.90;;;31.38;;
13807;SDS011;40769;51.512;5.494;2023-05-10T04:07:20;30.42;;;26.92;;
13807;SDS011;40769;51.512;5.494;2023-05-10T04:09:46;35.63;;;30.10;;
13807;SDS011;40769;51.512;5.494;2023-05-10T04:12:12;37.60;;;28.95;;
13807;SDS011;40769;51.512;5.494;2023-05-10T04:14:38;46.67;;;32.15;;
13807;SDS011;40769;51.512;5.494;2023-05-10T04:17:03;28.20;;;24.05;;
13807;SDS011;40769;51.512;5.494;2023-05-10T04:19:29;43.25;;;31.85;;
13807;SDS011;40769;51.512;5.494;2023-05-10T04:21:55;41.80;;;30.58;;
13807;SDS011;40769;51.512;5.494;2023-05-10T04:24:21;54.53;;;38.65;;
13807;SDS011;40769;51.512;5.494;2023-05-10T04:26:46;59.60;;;41.15;;
13807;SDS011;40769;51.512;5.494;2023-05-10T04:29:12;66.35;;;45.95;;
13807;SDS011;40769;51.512;5.494;2023-05-10T04:31:38;75.80;;;50.92;;
13807;SDS011;40769;51.512;5.494;2023-05-10T04:34:03;69.80;;;48.03;;
13807;SDS011;40769;51.512;5.494;2023-05-10T04:36:29;64.35;;;45.67;;
13807;SDS011;40769;51.512;5.494;2023-05-10T04:38:54;61.85;;;46.83;;
13807;SDS011;40769;51.512;5.494;2023-05-10T04:41:20;57.90;;;42.47;;
13807;SDS011;40769;51.512;5.494;2023-05-10T04:43:46;62.30;;;45.30;;
13807;SDS011;40769;51.512;5.494;2023-05-10T04:46:14;62.45;;;43.65;;
13807;SDS011;40769;51.512;5.494;2023-05-10T04:48:40;59.50;;;43.03;;
13807;SDS011;40769;51.512;5.494;2023-05-10T04:51:05;52.10;;;38.85;;
13807;SDS011;40769;51.512;5.494;2023-05-10T04:53:31;49.75;;;37.33;;
13807;SDS011;40769;51.512;5.494;2023-05-10T04:55:57;46.83;;;36.03;;
13807;SDS011;40769;51.512;5.494;2023-05-10T04:58:22;39.70;;;31.48;;
13807;SDS011;40769;51.512;5.494;2023-05-10T05:00:48;45.65;;;34.33;;
13807;SDS011;40769;51.512;5.494;2023-05-10T05:03:14;40.67;;;32.33;;
13807;SDS011;40769;51.512;5.494;2023-05-10T05:05:39;38.40;;;30.83;;
13807;SDS011;40769;51.512;5.494;2023-05-10T05:08:05;42.45;;;30.77;;
13807;SDS011;40769;51.512;5.494;2023-05-10T05:10:31;34.63;;;27.73;;
13807;SDS011;40769;51.512;5.494;2023-05-10T05:12:56;27.88;;;23.48;;
13807;SDS011;40769;51.512;5.494;2023-05-10T05:15:22;30.83;;;25.80;;
13807;SDS011;40769;51.512;5.494;2023-05-10T05:17:47;30.75;;;24.38;;
13807;SDS011;40769;51.512;5.494;2023-05-10T05:20:13;35.95;;;28.17;;
13807;SDS011;40769;51.512;5.494;2023-05-10T05:22:39;27.83;;;23.10;;
13807;SDS011;40769;51.512;5.494;2023-05-10T05:25:05;32.78;;;26.77;;
13807;SDS011;40769;51.512;5.494;2023-05-10T05:27:31;26.75;;;21.88;;
13807;SDS011;40769;51.512;5.494;2023-05-10T05:29:56;29.92;;;25.27;;
13807;SDS011;40769;51.512;5.494;2023-05-10T05:32:22;32.58;;;27.15;;
13807;SDS011;40769;51.512;5.494;2023-05-10T05:34:48;36.30;;;27.85;;
13807;SDS011;40769;51.512;5.494;2023-05-10T05:37:15;36.35;;;27.42;;
13807;SDS011;40769;51.512;5.494;2023-05-10T05:39:43;21.63;;;18.60;;
13807;SDS011;40769;51.512;5.494;2023-05-10T05:42:09;26.50;;;22.40;;
13807;SDS011;40769;51.512;5.494;2023-05-10T05:44:35;28.33;;;25.20;;
13807;SDS011;40769;51.512;5.494;2023-05-10T05:47:00;22.23;;;18.70;;
13807;SDS011;40769;51.512;5.494;2023-05-10T05:49:26;32.47;;;25.92;;
13807;SDS011;40769;51.512;5.494;2023-05-10T05:51:52;30.80;;;25.35;;
13807;SDS011;40769;51.512;5.494;2023-05-10T05:54:18;24.60;;;21.80;;
13807;SDS011;40769;51.512;5.494;2023-05-10T05:56:43;25.55;;;22.63;;
13807;SDS011;40769;51.512;5.494;2023-05-10T05:59:09;26.77;;;23.13;;
13807;SDS011;40769;51.512;5.494;2023-05-10T06:01:36;27.15;;;23.42;;
13807;SDS011;40769;51.512;5.494;2023-05-10T06:04:01;28.02;;;24.10;;
13807;SDS011;40769;51.512;5.494;2023-05-10T06:06:27;19.45;;;17.42;;
13807;SDS011;40769;51.512;5.494;2023-05-10T06:08:54;27.27;;;23.10;;
13807;SDS011;40769;51.512;5.494;2023-05-10T06:11:20;29.17;;;25.00;;
13807;SDS011;40769;51.512;5.494;2023-05-10T06:13:46;27.92;;;24.90;;
13807;SDS011;40769;51.512;5.494;2023-05-10T06:16:12;28.60;;;24.65;;
13807;SDS011;40769;51.512;5.494;2023-05-10T06:18:38;26.00;;;23.08;;
13807;SDS011;40769;51.512;5.494;2023-05-10T06:21:04;30.75;;;24.25;;
13807;SDS011;40769;51.512;5.494;2023-05-10T06:23:29;26.00;;;22.88;;
13807;SDS011;40769;51.512;5.494;2023-05-10T06:25:55;27.45;;;24.50;;
13807;SDS011;40769;51.512;5.494;2023-05-10T06:28:21;30.83;;;25.48;;
13807;SDS011;40769;51.512;5.494;2023-05-10T06:30:46;20.30;;;18.05;;
13807;SDS011;40769;51.512;5.494;2023-05-10T06:33:12;26.05;;;22.77;;
13807;SDS011;40769;51.512;5.494;2023-05-10T06:35:38;20.42;;;18.23;;
13807;SDS011;40769;51.512;5.494;2023-05-10T06:38:04;23.83;;;20.67;;
13807;SDS011;40769;51.512;5.494;2023-05-10T06:40:29;20.25;;;18.15;;
13807;SDS011;40769;51.512;5.494;2023-05-10T06:42:55;24.73;;;21.70;;
13807;SDS011;40769;51.512;5.494;2023-05-10T06:45:21;26.70;;;22.92;;
13807;SDS011;40769;51.512;5.494;2023-05-10T06:47:46;27.17;;;24.20;;
13807;SDS011;40769;51.512;5.494;2023-05-10T06:50:12;30.23;;;23.83;;
13807;SDS011;40769;51.512;5.494;2023-05-10T06:52:38;24.77;;;21.85;;
13807;SDS011;40769;51.512;5.494;2023-05-10T06:55:04;25.63;;;22.50;;
13807;SDS011;40769;51.512;5.494;2023-05-10T06:57:30;26.38;;;23.63;;
13807;SDS011;40769;51.512;5.494;2023-05-10T06:59:57;23.48;;;20.90;;
13807;SDS011;40769;51.512;5.494;2023-05-10T07:02:23;23.25;;;20.77;;
13807;SDS011;40769;51.512;5.494;2023-05-10T07:04:49;27.90;;;24.08;;
13807;SDS011;40769;51.512;5.494;2023-05-10T07:07:16;20.50;;;18.30;;
13807;SDS011;40769;51.512;5.494;2023-05-10T07:09:42;27.05;;;23.40;;
13807;SDS011;40769;51.512;5.494;2023-05-10T07:12:08;27.52;;;23.42;;
13807;SDS011;40769;51.512;5.494;2023-05-10T07:14:33;27.90;;;24.90;;
13807;SDS011;40769;51.512;5.494;2023-05-10T07:16:59;27.73;;;24.73;;
13807;SDS011;40769;51.512;5.494;2023-05-10T07:19:24;30.05;;;26.00;;
13807;SDS011;40769;51.512;5.494;2023-05-10T07:21:50;29.33;;;26.27;;
13807;SDS011;40769;51.512;5.494;2023-05-10T07:24:16;29.63;;;26.42;;
13807;SDS011;40769;51.512;5.494;2023-05-10T07:26:42;28.13;;;25.17;;
13807;SDS011;40769;51.512;5.494;2023-05-10T07:29:08;30.58;;;27.30;;
13807;SDS011;40769;51.512;5.494;2023-05-10T07:31:33;28.50;;;24.95;;
13807;SDS011;40769;51.512;5.494;2023-05-10T07:33:59;24.58;;;20.90;;
13807;SDS011;40769;51.512;5.494;2023-05-10T07:36:24;27.33;;;23.98;;
13807;SDS011;40769;51.512;5.494;2023-05-10T07:38:50;24.08;;;21.60;;
13807;SDS011;40769;51.512;5.494;2023-05-10T07:41:16;24.73;;;22.20;;
13807;SDS011;40769;51.512;5.494;2023-05-10T07:43:42;27.25;;;22.80;;
13807;SDS011;40769;51.512;5.494;2023-05-10T07:46:07;23.42;;;21.05;;
13807;SDS011;40769;51.512;5.494;2023-05-10T07:48:35;23.80;;;21.50;;
13807;SDS011;40769;51.512;5.494;2023-05-10T07:51:01;17.48;;;15.68;;
13807;SDS011;40769;51.512;5.494;2023-05-10T07:53:27;20.48;;;17.85;;
13807;SDS011;40769;51.512;5.494;2023-05-10T07:55:58;21.80;;;19.58;;
13807;SDS011;40769;51.512;5.494;2023-05-10T07:58:44;17.33;;;15.55;;
13807;SDS011;40769;51.512;5.494;2023-05-10T08:01:10;20.90;;;18.73;;
13807;SDS011;40769;51.512;5.494;2023-05-10T08:03:37;16.45;;;14.60;;
13807;SDS011;40769;51.512;5.494;2023-05-10T08:06:03;15.70;;;14.20;;
13807;SDS011;40769;51.512;5.494;2023-05-10T08:08:29;17.15;;;15.43;;
13807;SDS011;40769;51.512;5.494;2023-05-10T08:10:54;17.38;;;15.75;;
13807;SDS011;40769;51.512;5.494;2023-05-10T08:13:20;16.15;;;14.55;;
13807;SDS011;40769;51.512;5.494;2023-05-10T08:15:46;15.13;;;13.70;;
13807;SDS011;40769;51.512;5.494;2023-05-10T08:18:12;15.88;;;14.38;;
13807;SDS011;40769;51.512;5.494;2023-05-10T08:20:37;16.08;;;14.55;;
13807;SDS011;40769;51.512;5.494;2023-05-10T08:23:03;15.77;;;14.20;;
13807;SDS011;40769;51.512;5.494;2023-05-10T08:25:28;16.52;;;14.93;;
13807;SDS011;40769;51.512;5.494;2023-05-10T08:27:54;15.52;;;14.02;;
13807;SDS011;40769;51.512;5.494;2023-05-10T08:30:20;11.43;;;10.43;;
13807;SDS011;40769;51.512;5.494;2023-05-10T08:32:45;13.65;;;12.35;;
13807;SDS011;40769;51.512;5.494;2023-05-10T08:35:11;12.40;;;10.98;;
13807;SDS011;40769;51.512;5.494;2023-05-10T08:37:37;11.70;;;10.60;;
13807;SDS011;40769;51.512;5.494;2023-05-10T08:40:02;12.75;;;11.45;;
13807;SDS011;40769;51.512;5.494;2023-05-10T08:42:28;13.32;;;12.10;;
13807;SDS011;40769;51.512;5.494;2023-05-10T08:44:57;14.15;;;12.73;;
13807;SDS011;40769;51.512;5.494;2023-05-10T08:47:24;12.88;;;11.85;;
13807;SDS011;40769;51.512;5.494;2023-05-10T08:49:50;11.95;;;10.82;;
13807;SDS011;40769;51.512;5.494;2023-05-10T08:52:17;11.48;;;10.48;;
13807;SDS011;40769;51.512;5.494;2023-05-10T08:54:43;10.98;;;9.95;;
13807;SDS011;40769;51.512;5.494;2023-05-10T08:57:10;10.07;;;9.18;;
13807;SDS011;40769;51.512;5.494;2023-05-10T08:59:35;9.73;;;8.82;;
13807;SDS011;40769;51.512;5.494;2023-05-10T09:02:04;8.63;;;7.93;;
13807;SDS011;40769;51.512;5.494;2023-05-10T09:04:30;8.77;;;7.88;;
13807;SDS011;40769;51.512;5.494;2023-05-10T09:06:56;8.52;;;7.63;;
13807;SDS011;40769;51.512;5.494;2023-05-10T09:09:22;8.05;;;6.90;;
13807;SDS011;40769;51.512;5.494;2023-05-10T09:11:50;6.32;;;5.82;;
13807;SDS011;40769;51.512;5.494;2023-05-10T09:14:17;7.18;;;6.63;;
13807;SDS011;40769;51.512;5.494;2023-05-10T09:16:44;6.60;;;6.07;;
13807;SDS011;40769;51.512;5.494;2023-05-10T09:19:10;7.57;;;6.88;;
13807;SDS011;40769;51.512;5.494;2023-05-10T09:21:36;9.45;;;6.35;;
13807;SDS011;40769;51.512;5.494;2023-05-10T09:24:06;5.35;;;4.95;;
13807;SDS011;40769;51.512;5.494;2023-05-10T09:26:33;6.63;;;5.60;;
13807;SDS011;40769;51.512;5.494;2023-05-10T09:29:00;5.57;;;5.07;;
13807;SDS011;40769;51.512;5.494;2023-05-10T09:31:42;6.68;;;5.97;;
13807;SDS011;40769;51.512;5.494;2023-05-10T09:34:08;6.18;;;5.68;;
13807;SDS011;40769;51.512;5.494;2023-05-10T09:36:34;5.90;;;5.40;;
13807;SDS011;40769;51.512;5.494;2023-05-10T09:38:59;5.50;;;5.00;;
13807;SDS011;40769;51.512;5.494;2023-05-10T09:41:25;5.38;;;4.88;;
13807;SDS011;40769;51.512;5.494;2023-05-10T09:43:55;5.72;;;5.25;;
13807;SDS011;40769;51.512;5.494;2023-05-10T09:46:21;4.80;;;4.40;;
13807;SDS011;40769;51.512;5.494;2023-05-10T09:48:47;5.70;;;5.30;;
13807;SDS011;40769;51.512;5.494;2023-05-10T09:51:23;6.38;;;5.85;;
13807;SDS011;40769;51.512;5.494;2023-05-10T09:54:10;5.60;;;5.07;;
13807;SDS011;40769;51.512;5.494;2023-05-10T09:56:41;5.97;;;5.50;;
13807;SDS011;40769;51.512;5.494;2023-05-10T09:59:09;5.65;;;5.15;;
13807;SDS011;40769;51.512;5.494;2023-05-10T10:01:36;6.53;;;5.43;;
13807;SDS011;40769;51.512;5.494;2023-05-10T10:04:03;5.63;;;5.13;;
13807;SDS011;40769;51.512;5.494;2023-05-10T10:06:34;5.72;;;4.93;;
13807;SDS011;40769;51.512;5.494;2023-05-10T10:09:01;5.30;;;4.90;;
13807;SDS011;40769;51.512;5.494;2023-05-10T10:11:27;6.20;;;5.70;;
13807;SDS011;40769;51.512;5.494;2023-05-10T10:13:53;5.55;;;5.13;;
13807;SDS011;40769;51.512;5.494;2023-05-10T10:16:19;6.55;;;5.95;;
13807;SDS011;40769;51.512;5.494;2023-05-10T10:18:45;5.72;;;5.22;;
13807;SDS011;40769;51.512;5.494;2023-05-10T10:21:13;6.57;;;6.05;;
13807;SDS011;40769;51.512;5.494;2023-05-10T10:23:39;7.07;;;6.47;;
13807;SDS011;40769;51.512;5.494;2023-05-10T10:26:05;7.03;;;6.32;;
13807;SDS011;40769;51.512;5.494;2023-05-10T10:31:02;7.93;;;7.22;;
13807;SDS011;40769;51.512;5.494;2023-05-10T10:34:00;8.30;;;7.60;;
13807;SDS011;40769;51.512;5.494;2023-05-10T10:36:45;7.68;;;7.07;;
13807;SDS011;40769;51.512;5.494;2023-05-10T10:39:12;8.10;;;7.40;;
13807;SDS011;40769;51.512;5.494;2023-05-10T10:44:24;7.47;;;6.78;;
13807;SDS011;40769;51.512;5.494;2023-05-10T10:47:05;6.78;;;6.18;;
13807;SDS011;40769;51.512;5.494;2023-05-10T10:49:33;6.38;;;5.88;;
13807;SDS011;40769;51.512;5.494;2023-05-10T10:52:14;6.45;;;5.85;;
13807;SDS011;40769;51.512;5.494;2023-05-10T10:55:07;5.53;;;5.13;;
13807;SDS011;40769;51.512;5.494;2023-05-10T11:02:47;6.00;;;5.60;;
13807;SDS011;40769;51.512;5.494;2023-05-10T11:05:25;5.80;;;5.30;;
13807;SDS011;40769;51.512;5.494;2023-05-10T11:13:43;6.75;;;6.15;;
13807;SDS011;40769;51.512;5.494;2023-05-10T11:18:38;6.32;;;5.75;;
13807;SDS011;40769;51.512;5.494;2023-05-10T11:21:04;6.97;;;6.38;;
13807;SDS011;40769;51.512;5.494;2023-05-10T11:26:12;9.00;;;8.30;;
13807;SDS011;40769;51.512;5.494;2023-05-10T11:28:41;11.57;;;10.57;;
13807;SDS011;40769;51.512;5.494;2023-05-10T11:31:12;12.93;;;11.73;;
13807;SDS011;40769;51.512;5.494;2023-05-10T11:33:45;14.63;;;13.25;;
13807;SDS011;40769;51.512;5.494;2023-05-10T11:36:17;14.63;;;13.32;;
13807;SDS011;40769;51.512;5.494;2023-05-10T11:38:44;13.55;;;12.23;;
13807;SDS011;40769;51.512;5.494;2023-05-10T11:41:11;12.55;;;11.52;;
13807;SDS011;40769;51.512;5.494;2023-05-10T11:43:38;12.27;;;11.20;;
13807;SDS011;40769;51.512;5.494;2023-05-10T11:46:09;12.32;;;11.23;;
13807;SDS011;40769;51.512;5.494;2023-05-10T11:48:40;9.93;;;9.02;;
13807;SDS011;40769;51.512;5.494;2023-05-10T11:51:10;13.57;;;12.38;;
13807;SDS011;40769;51.512;5.494;2023-05-10T11:53:36;11.65;;;10.55;;
13807;SDS011;40769;51.512;5.494;2023-05-10T11:56:06;13.43;;;12.32;;
13807;SDS011;40769;51.512;5.494;2023-05-10T11:58:34;13.60;;;12.30;;
13807;SDS011;40769;51.512;5.494;2023-05-10T12:01:00;11.43;;;10.43;;
13807;SDS011;40769;51.512;5.494;2023-05-10T12:03:27;20.10;;;10.95;;
13807;SDS011;40769;51.512;5.494;2023-05-10T12:05:54;11.70;;;10.68;;
13807;SDS011;40769;51.512;5.494;2023-05-10T12:08:24;10.77;;;9.88;;
13807;SDS011;40769;51.512;5.494;2023-05-10T12:10:51;11.35;;;10.10;;
13807;SDS011;40769;51.512;5.494;2023-05-10T12:13:19;9.95;;;9.15;;
13807;SDS011;40769;51.512;5.494;2023-05-10T12:15:45;10.95;;;10.15;;
13807;SDS011;40769;51.512;5.494;2023-05-10T12:18:12;10.65;;;9.75;;
13807;SDS011;40769;51.512;5.494;2023-05-10T12:20:39;11.40;;;10.50;;
13807;SDS011;40769;51.512;5.494;2023-05-10T12:23:05;12.52;;;11.48;;
13807;SDS011;40769;51.512;5.494;2023-05-10T12:25:33;13.27;;;12.13;;
13807;SDS011;40769;51.512;5.494;2023-05-10T12:28:02;16.23;;;14.65;;
13807;SDS011;40769;51.512;5.494;2023-05-10T12:30:31;18.35;;;16.75;;
13807;SDS011;40769;51.512;5.494;2023-05-10T12:33:01;18.85;;;17.15;;
13807;SDS011;40769;51.512;5.494;2023-05-10T12:35:32;16.58;;;15.05;;
13807;SDS011;40769;51.512;5.494;2023-05-10T12:38:23;15.68;;;14.15;;
13807;SDS011;40769;51.512;5.494;2023-05-10T12:40:50;13.45;;;12.10;;
13807;SDS011;40769;51.512;5.494;2023-05-10T12:43:19;13.45;;;12.30;;
13807;SDS011;40769;51.512;5.494;2023-05-10T12:45:45;13.90;;;12.60;;
13807;SDS011;40769;51.512;5.494;2023-05-10T12:48:13;10.93;;;10.07;;
13807;SDS011;40769;51.512;5.494;2023-05-10T12:50:38;15.35;;;13.77;;
13807;SDS011;40769;51.512;5.494;2023-05-10T12:53:04;14.30;;;13.20;;
13807;SDS011;40769;51.512;5.494;2023-05-10T12:55:29;14.30;;;13.07;;
13807;SDS011;40769;51.512;5.494;2023-05-10T12:57:55;12.68;;;11.68;;
13807;SDS011;40769;51.512;5.494;2023-05-10T13:00:21;9.57;;;8.88;;
13807;SDS011;40769;51.512;5.494;2023-05-10T13:02:47;14.70;;;13.57;;
13807;SDS011;40769;51.512;5.494;2023-05-10T13:05:12;15.02;;;13.73;;
13807;SDS011;40769;51.512;5.494;2023-05-10T13:07:38;13.18;;;12.18;;
13807;SDS011;40769;51.512;5.494;2023-05-10T13:10:05;9.95;;;9.15;;
13807;SDS011;40769;51.512;5.494;2023-05-10T13:12:31;12.10;;;11.10;;
13807;SDS011;40769;51.512;5.494;2023-05-10T13:14:57;10.52;;;9.73;;
13807;SDS011;40769;51.512;5.494;2023-05-10T13:17:22;14.50;;;13.32;;
13807;SDS011;40769;51.512;5.494;2023-05-10T13:19:53;13.32;;;12.30;;
13807;SDS011;40769;51.512;5.494;2023-05-10T13:22:18;16.27;;;14.88;;
13807;SDS011;40769;51.512;5.494;2023-05-10T13:24:44;14.93;;;13.70;;
13807;SDS011;40769;51.512;5.494;2023-05-10T13:27:10;14.15;;;13.05;;
13807;SDS011;40769;51.512;5.494;2023-05-10T13:29:35;15.77;;;14.50;;
13807;SDS011;40769;51.512;5.494;2023-05-10T13:32:01;17.40;;;16.02;;
13807;SDS011;40769;51.512;5.494;2023-05-10T13:34:27;16.75;;;15.35;;
13807;SDS011;40769;51.512;5.494;2023-05-10T13:36:53;17.05;;;15.65;;
13807;SDS011;40769;51.512;5.494;2023-05-10T13:39:19;17.65;;;16.15;;
13807;SDS011;40769;51.512;5.494;2023-05-10T13:41:45;18.33;;;16.83;;
13807;SDS011;40769;51.512;5.494;2023-05-10T13:44:12;16.30;;;15.10;;
13807;SDS011;40769;51.512;5.494;2023-05-10T13:46:39;18.52;;;16.90;;
13807;SDS011;40769;51.512;5.494;2023-05-10T13:49:08;19.58;;;17.58;;
13807;SDS011;40769;51.512;5.494;2023-05-10T13:51:34;20.33;;;18.60;;
13807;SDS011;40769;51.512;5.494;2023-05-10T13:54:01;20.52;;;18.65;;
13807;SDS011;40769;51.512;5.494;2023-05-10T13:56:27;19.83;;;18.13;;
13807;SDS011;40769;51.512;5.494;2023-05-10T13:58:53;21.05;;;19.17;;
13807;SDS011;40769;51.512;5.494;2023-05-10T14:01:18;20.42;;;18.58;;
13807;SDS011;40769;51.512;5.494;2023-05-10T14:03:44;19.23;;;17.42;;
13807;SDS011;40769;51.512;5.494;2023-05-10T14:06:10;17.45;;;15.77;;
13807;SDS011;40769;51.512;5.494;2023-05-10T14:08:35;16.10;;;14.60;;
13807;SDS011;40769;51.512;5.494;2023-05-10T14:11:01;16.38;;;14.88;;
13807;SDS011;40769;51.512;5.494;2023-05-10T14:13:27;14.18;;;12.88;;
13807;SDS011;40769;51.512;5.494;2023-05-10T14:15:53;15.20;;;13.75;;
13807;SDS011;40769;51.512;5.494;2023-05-10T14:18:19;10.93;;;10.02;;
13807;SDS011;40769;51.512;5.494;2023-05-10T14:20:45;8.23;;;7.53;;
13807;SDS011;40769;51.512;5.494;2023-05-10T14:23:11;12.38;;;11.27;;
13807;SDS011;40769;51.512;5.494;2023-05-10T14:25:37;12.60;;;11.40;;
13807;SDS011;40769;51.512;5.494;2023-05-10T14:28:05;13.27;;;12.02;;
13807;SDS011;40769;51.512;5.494;2023-05-10T14:30:31;13.95;;;12.65;;
13807;SDS011;40769;51.512;5.494;2023-05-10T14:32:59;14.02;;;12.77;;
13807;SDS011;40769;51.512;5.494;2023-05-10T14:35:26;12.55;;;11.45;;
13807;SDS011;40769;51.512;5.494;2023-05-10T14:37:54;13.13;;;11.93;;
13807;SDS011;40769;51.512;5.494;2023-05-10T14:40:20;9.95;;;9.05;;
13807;SDS011;40769;51.512;5.494;2023-05-10T14:42:46;10.07;;;9.23;;
13807;SDS011;40769;51.512;5.494;2023-05-10T14:45:11;13.20;;;11.90;;
13807;SDS011;40769;51.512;5.494;2023-05-10T14:47:37;8.90;;;8.10;;
13807;SDS011;40769;51.512;5.494;2023-05-10T14:50:03;12.15;;;10.93;;
13807;SDS011;40769;51.512;5.494;2023-05-10T14:52:29;9.70;;;8.90;;
13807;SDS011;40769;51.512;5.494;2023-05-10T14:54:55;10.68;;;9.63;;
13807;SDS011;40769;51.512;5.494;2023-05-10T14:57:20;15.30;;;13.75;;
13807;SDS011;40769;51.512;5.494;2023-05-10T14:59:49;16.33;;;14.82;;
13807;SDS011;40769;51.512;5.494;2023-05-10T15:02:14;16.60;;;14.93;;
13807;SDS011;40769;51.512;5.494;2023-05-10T15:04:41;14.65;;;13.23;;